sensor_id;sensor_type;location;lat;lon;timestamp;P1;durP1;ratioP1;P2;durP2;ratioP2
69083;SDS011;56185;48.526;9.044;2023-09-08T00:01:47;5.67;;;4.60;;
69083;SDS011;56185;48.526;9.044;2023-09-08T00:04:12;7.82;;;5.40;;
69083;SDS011;56185;48.526;9.044;2023-09-08T00:06:38;7.73;;;5.43;;
69083;SDS011;56185;48.526;9.044;2023-09-08T00:09:03;9.00;;;5.30;;
69083;SDS011;56185;48.526;9.044;2023-09-08T00:11:28;7.10;;;4.90;;
69083;SDS011;56185;48.526;9.044;2023-09-08T00:13:54;5.97;;;4.57;;
69083;SDS011;56185;48.526;9.044;2023-09-08T00:16:19;7.37;;;4.70;;
69083;SDS011;56185;48.526;9.044;2023-09-08T00:18:44;5.93;;;4.57;;
69083;SDS011;56185;48.526;9.044;2023-09-08T00:21:09;7.50;;;4.85;;
69083;SDS011;56185;48.526;9.044;2023-09-08T00:23:35;6.73;;;4.87;;
69083;SDS011;56185;48.526;9.044;2023-09-08T00:26:00;7.07;;;4.97;;
69083;SDS011;56185;48.526;9.044;2023-09-08T00:28:25;6.90;;;4.72;;
69083;SDS011;56185;48.526;9.044;2023-09-08T00:30:50;8.20;;;4.80;;
69083;SDS011;56185;48.526;9.044;2023-09-08T00:33:16;8.47;;;5.10;;
69083;SDS011;56185;48.526;9.044;2023-09-08T00:35:44;5.45;;;4.90;;
69083;SDS011;56185;48.526;9.044;2023-09-08T00:38:09;6.22;;;4.95;;
69083;SDS011;56185;48.526;9.044;2023-09-08T00:40:35;6.93;;;5.07;;
69083;SDS011;56185;48.526;9.044;2023-09-08T00:43:00;7.63;;;5.60;;
69083;SDS011;56185;48.526;9.044;2023-09-08T00:45:26;6.55;;;4.65;;
69083;SDS011;56185;48.526;9.044;2023-09-08T00:47:54;7.78;;;5.00;;
69083;SDS011;56185;48.526;9.044;2023-09-08T00:50:19;6.30;;;4.73;;
69083;SDS011;56185;48.526;9.044;2023-09-08T00:52:45;7.30;;;4.82;;
69083;SDS011;56185;48.526;9.044;2023-09-08T00:55:10;9.40;;;5.10;;
69083;SDS011;56185;48.526;9.044;2023-09-08T00:57:35;6.95;;;4.70;;
69083;SDS011;56185;48.526;9.044;2023-09-08T01:00:01;7.32;;;4.72;;
69083;SDS011;56185;48.526;9.044;2023-09-08T01:02:26;8.45;;;4.65;;
69083;SDS011;56185;48.526;9.044;2023-09-08T01:04:52;6.87;;;4.93;;
69083;SDS011;56185;48.526;9.044;2023-09-08T01:07:17;6.43;;;4.93;;
69083;SDS011;56185;48.526;9.044;2023-09-08T01:09:45;7.13;;;4.75;;
69083;SDS011;56185;48.526;9.044;2023-09-08T01:12:11;6.22;;;4.75;;
69083;SDS011;56185;48.526;9.044;2023-09-08T01:14:36;6.53;;;4.70;;
69083;SDS011;56185;48.526;9.044;2023-09-08T01:17:01;7.97;;;4.90;;
69083;SDS011;56185;48.526;9.044;2023-09-08T01:19:27;10.70;;;5.23;;
69083;SDS011;56185;48.526;9.044;2023-09-08T01:21:57;10.15;;;5.30;;
69083;SDS011;56185;48.526;9.044;2023-09-08T01:27:21;8.75;;;5.32;;
69083;SDS011;56185;48.526;9.044;2023-09-08T01:29:49;8.70;;;5.40;;
69083;SDS011;56185;48.526;9.044;2023-09-08T01:32:16;7.05;;;4.80;;
69083;SDS011;56185;48.526;9.044;2023-09-08T01:34:42;6.18;;;5.22;;
69083;SDS011;56185;48.526;9.044;2023-09-08T01:37:07;6.70;;;4.67;;
69083;SDS011;56185;48.526;9.044;2023-09-08T01:39:33;7.65;;;4.93;;
69083;SDS011;56185;48.526;9.044;2023-09-08T01:41:58;7.27;;;5.10;;
69083;SDS011;56185;48.526;9.044;2023-09-08T01:44:23;6.23;;;5.00;;
69083;SDS011;56185;48.526;9.044;2023-09-08T01:46:49;6.60;;;4.77;;
69083;SDS011;56185;48.526;9.044;2023-09-08T01:49:14;7.82;;;5.20;;
69083;SDS011;56185;48.526;9.044;2023-09-08T01:51:39;7.17;;;4.90;;
69083;SDS011;56185;48.526;9.044;2023-09-08T01:54:04;7.17;;;5.33;;
69083;SDS011;56185;48.526;9.044;2023-09-08T01:56:30;8.17;;;5.50;;
69083;SDS011;56185;48.526;9.044;2023-09-08T01:58:55;8.20;;;5.50;;
69083;SDS011;56185;48.526;9.044;2023-09-08T02:01:20;7.10;;;5.67;;
69083;SDS011;56185;48.526;9.044;2023-09-08T02:03:45;7.63;;;5.20;;
69083;SDS011;56185;48.526;9.044;2023-09-08T02:06:11;7.45;;;5.20;;
69083;SDS011;56185;48.526;9.044;2023-09-08T02:08:36;7.47;;;5.00;;
69083;SDS011;56185;48.526;9.044;2023-09-08T02:11:01;5.87;;;4.87;;
69083;SDS011;56185;48.526;9.044;2023-09-08T02:13:26;9.83;;;4.70;;
69083;SDS011;56185;48.526;9.044;2023-09-08T02:15:52;7.20;;;4.90;;
69083;SDS011;56185;48.526;9.044;2023-09-08T02:18:17;7.57;;;4.97;;
69083;SDS011;56185;48.526;9.044;2023-09-08T02:20:42;7.03;;;4.87;;
69083;SDS011;56185;48.526;9.044;2023-09-08T02:23:07;6.72;;;4.60;;
69083;SDS011;56185;48.526;9.044;2023-09-08T02:25:33;7.70;;;5.13;;
69083;SDS011;56185;48.526;9.044;2023-09-08T02:27:58;10.55;;;4.63;;
69083;SDS011;56185;48.526;9.044;2023-09-08T02:30:23;7.17;;;4.70;;
69083;SDS011;56185;48.526;9.044;2023-09-08T02:32:49;7.13;;;4.80;;
69083;SDS011;56185;48.526;9.044;2023-09-08T02:35:14;7.17;;;4.80;;
69083;SDS011;56185;48.526;9.044;2023-09-08T02:37:39;6.10;;;4.80;;
69083;SDS011;56185;48.526;9.044;2023-09-08T02:40:05;8.82;;;5.78;;
69083;SDS011;56185;48.526;9.044;2023-09-08T02:42:31;9.82;;;5.88;;
69083;SDS011;56185;48.526;9.044;2023-09-08T02:44:56;7.88;;;6.22;;
69083;SDS011;56185;48.526;9.044;2023-09-08T02:47:22;7.30;;;5.20;;
69083;SDS011;56185;48.526;9.044;2023-09-08T02:49:47;8.10;;;5.53;;
69083;SDS011;56185;48.526;9.044;2023-09-08T02:52:12;7.47;;;5.43;;
69083;SDS011;56185;48.526;9.044;2023-09-08T02:54:37;7.13;;;5.53;;
69083;SDS011;56185;48.526;9.044;2023-09-08T02:57:03;8.03;;;5.50;;
69083;SDS011;56185;48.526;9.044;2023-09-08T02:59:28;7.35;;;5.28;;
69083;SDS011;56185;48.526;9.044;2023-09-08T03:01:53;9.47;;;6.23;;
69083;SDS011;56185;48.526;9.044;2023-09-08T03:04:19;8.30;;;5.60;;
69083;SDS011;56185;48.526;9.044;2023-09-08T03:06:44;6.63;;;5.40;;
69083;SDS011;56185;48.526;9.044;2023-09-08T03:09:09;8.43;;;5.83;;
69083;SDS011;56185;48.526;9.044;2023-09-08T03:11:34;6.97;;;5.70;;
69083;SDS011;56185;48.526;9.044;2023-09-08T03:14:00;8.30;;;6.18;;
69083;SDS011;56185;48.526;9.044;2023-09-08T03:16:25;8.10;;;5.53;;
69083;SDS011;56185;48.526;9.044;2023-09-08T03:18:50;7.13;;;5.73;;
69083;SDS011;56185;48.526;9.044;2023-09-08T03:21:15;7.73;;;5.80;;
69083;SDS011;56185;48.526;9.044;2023-09-08T03:23:41;9.33;;;5.60;;
69083;SDS011;56185;48.526;9.044;2023-09-08T03:26:08;7.78;;;5.35;;
69083;SDS011;56185;48.526;9.044;2023-09-08T03:28:35;7.35;;;5.00;;
69083;SDS011;56185;48.526;9.044;2023-09-08T03:31:01;6.35;;;5.03;;
69083;SDS011;56185;48.526;9.044;2023-09-08T03:33:27;7.32;;;4.88;;
69083;SDS011;56185;48.526;9.044;2023-09-08T03:35:52;9.90;;;5.07;;
69083;SDS011;56185;48.526;9.044;2023-09-08T03:38:17;6.67;;;4.67;;
69083;SDS011;56185;48.526;9.044;2023-09-08T03:40:43;6.67;;;4.67;;
69083;SDS011;56185;48.526;9.044;2023-09-08T03:43:08;6.38;;;5.25;;
69083;SDS011;56185;48.526;9.044;2023-09-08T03:45:33;7.33;;;5.23;;
69083;SDS011;56185;48.526;9.044;2023-09-08T03:47:58;6.77;;;5.03;;
69083;SDS011;56185;48.526;9.044;2023-09-08T03:50:24;6.30;;;4.93;;
69083;SDS011;56185;48.526;9.044;2023-09-08T03:52:49;7.32;;;4.78;;
69083;SDS011;56185;48.526;9.044;2023-09-08T03:55:15;9.32;;;4.80;;
69083;SDS011;56185;48.526;9.044;2023-09-08T03:57:40;6.70;;;4.40;;
69083;SDS011;56185;48.526;9.044;2023-09-08T04:00:05;7.00;;;4.80;;
69083;SDS011;56185;48.526;9.044;2023-09-08T04:02:31;6.25;;;4.60;;
69083;SDS011;56185;48.526;9.044;2023-09-08T04:04:56;6.30;;;4.63;;
69083;SDS011;56185;48.526;9.044;2023-09-08T04:07:22;5.23;;;4.50;;
69083;SDS011;56185;48.526;9.044;2023-09-08T04:09:47;6.27;;;4.90;;
69083;SDS011;56185;48.526;9.044;2023-09-08T04:12:12;6.43;;;4.33;;
69083;SDS011;56185;48.526;9.044;2023-09-08T04:14:37;7.80;;;5.20;;
69083;SDS011;56185;48.526;9.044;2023-09-08T04:17:03;7.80;;;5.17;;
69083;SDS011;56185;48.526;9.044;2023-09-08T04:19:28;7.95;;;4.70;;
69083;SDS011;56185;48.526;9.044;2023-09-08T04:21:53;6.80;;;4.72;;
69083;SDS011;56185;48.526;9.044;2023-09-08T04:24:19;8.27;;;4.80;;
69083;SDS011;56185;48.526;9.044;2023-09-08T04:26:44;6.60;;;4.45;;
69083;SDS011;56185;48.526;9.044;2023-09-08T04:29:09;6.90;;;4.87;;
69083;SDS011;56185;48.526;9.044;2023-09-08T04:31:34;9.37;;;4.67;;
69083;SDS011;56185;48.526;9.044;2023-09-08T04:34:00;8.93;;;4.73;;
69083;SDS011;56185;48.526;9.044;2023-09-08T04:36:25;7.47;;;4.80;;
69083;SDS011;56185;48.526;9.044;2023-09-08T04:38:50;5.77;;;4.70;;
69083;SDS011;56185;48.526;9.044;2023-09-08T04:41:15;7.03;;;4.40;;
69083;SDS011;56185;48.526;9.044;2023-09-08T04:43:40;6.33;;;4.97;;
69083;SDS011;56185;48.526;9.044;2023-09-08T04:46:06;9.00;;;5.27;;
69083;SDS011;56185;48.526;9.044;2023-09-08T04:48:31;7.00;;;4.73;;
69083;SDS011;56185;48.526;9.044;2023-09-08T04:50:56;7.43;;;5.10;;
69083;SDS011;56185;48.526;9.044;2023-09-08T04:53:22;6.72;;;5.00;;
69083;SDS011;56185;48.526;9.044;2023-09-08T04:55:48;9.15;;;5.50;;
69083;SDS011;56185;48.526;9.044;2023-09-08T04:58:13;5.80;;;5.13;;
69083;SDS011;56185;48.526;9.044;2023-09-08T05:00:38;7.67;;;5.37;;
69083;SDS011;56185;48.526;9.044;2023-09-08T05:03:03;11.27;;;5.57;;
69083;SDS011;56185;48.526;9.044;2023-09-08T05:05:29;8.85;;;6.00;;
69083;SDS011;56185;48.526;9.044;2023-09-08T05:07:54;9.02;;;5.97;;
69083;SDS011;56185;48.526;9.044;2023-09-08T05:10:19;10.10;;;6.03;;
69083;SDS011;56185;48.526;9.044;2023-09-08T05:12:45;10.37;;;5.97;;
69083;SDS011;56185;48.526;9.044;2023-09-08T05:15:10;8.80;;;6.30;;
69083;SDS011;56185;48.526;9.044;2023-09-08T05:17:35;6.43;;;5.40;;
69083;SDS011;56185;48.526;9.044;2023-09-08T05:20:01;8.80;;;6.43;;
69083;SDS011;56185;48.526;9.044;2023-09-08T05:22:26;9.05;;;6.35;;
69083;SDS011;56185;48.526;9.044;2023-09-08T05:24:52;8.37;;;6.10;;
69083;SDS011;56185;48.526;9.044;2023-09-08T05:27:17;9.47;;;6.27;;
69083;SDS011;56185;48.526;9.044;2023-09-08T05:29:42;8.90;;;5.97;;
69083;SDS011;56185;48.526;9.044;2023-09-08T05:32:07;9.27;;;5.80;;
69083;SDS011;56185;48.526;9.044;2023-09-08T05:34:33;7.77;;;5.80;;
69083;SDS011;56185;48.526;9.044;2023-09-08T05:36:58;8.17;;;5.77;;
69083;SDS011;56185;48.526;9.044;2023-09-08T05:39:23;9.13;;;6.13;;
69083;SDS011;56185;48.526;9.044;2023-09-08T05:41:48;7.90;;;6.37;;
69083;SDS011;56185;48.526;9.044;2023-09-08T05:44:14;7.57;;;5.77;;
69083;SDS011;56185;48.526;9.044;2023-09-08T05:46:39;9.25;;;5.80;;
69083;SDS011;56185;48.526;9.044;2023-09-08T05:49:04;11.33;;;6.10;;
69083;SDS011;56185;48.526;9.044;2023-09-08T05:51:29;8.93;;;6.10;;
69083;SDS011;56185;48.526;9.044;2023-09-08T05:53:56;6.82;;;5.88;;
69083;SDS011;56185;48.526;9.044;2023-09-08T05:56:24;10.13;;;6.00;;
69083;SDS011;56185;48.526;9.044;2023-09-08T05:58:49;6.65;;;5.70;;
69083;SDS011;56185;48.526;9.044;2023-09-08T06:01:15;10.47;;;5.70;;
69083;SDS011;56185;48.526;9.044;2023-09-08T06:03:41;11.05;;;5.65;;
69083;SDS011;56185;48.526;9.044;2023-09-08T06:06:06;7.85;;;5.53;;
69083;SDS011;56185;48.526;9.044;2023-09-08T06:08:31;7.70;;;5.20;;
69083;SDS011;56185;48.526;9.044;2023-09-08T06:10:56;7.07;;;5.60;;
69083;SDS011;56185;48.526;9.044;2023-09-08T06:13:22;7.97;;;5.57;;
69083;SDS011;56185;48.526;9.044;2023-09-08T06:15:47;9.85;;;5.90;;
69083;SDS011;56185;48.526;9.044;2023-09-08T06:18:12;7.40;;;5.53;;
69083;SDS011;56185;48.526;9.044;2023-09-08T06:20:43;8.83;;;6.07;;
69083;SDS011;56185;48.526;9.044;2023-09-08T06:23:09;8.63;;;6.15;;
69083;SDS011;56185;48.526;9.044;2023-09-08T06:25:34;9.02;;;5.72;;
69083;SDS011;56185;48.526;9.044;2023-09-08T06:28:00;9.88;;;5.93;;
69083;SDS011;56185;48.526;9.044;2023-09-08T06:30:25;10.37;;;6.03;;
69083;SDS011;56185;48.526;9.044;2023-09-08T06:32:51;7.67;;;5.83;;
69083;SDS011;56185;48.526;9.044;2023-09-08T06:35:16;9.27;;;6.20;;
69083;SDS011;56185;48.526;9.044;2023-09-08T06:37:41;6.60;;;5.90;;
69083;SDS011;56185;48.526;9.044;2023-09-08T06:40:07;8.70;;;6.57;;
69083;SDS011;56185;48.526;9.044;2023-09-08T06:42:32;9.10;;;6.28;;
69083;SDS011;56185;48.526;9.044;2023-09-08T06:44:58;12.57;;;6.30;;
69083;SDS011;56185;48.526;9.044;2023-09-08T06:47:24;8.45;;;6.75;;
69083;SDS011;56185;48.526;9.044;2023-09-08T06:49:49;9.23;;;7.25;;
69083;SDS011;56185;48.526;9.044;2023-09-08T06:52:14;8.07;;;6.63;;
69083;SDS011;56185;48.526;9.044;2023-09-08T06:54:40;8.43;;;6.83;;
69083;SDS011;56185;48.526;9.044;2023-09-08T06:57:05;9.03;;;6.70;;
69083;SDS011;56185;48.526;9.044;2023-09-08T06:59:30;10.60;;;7.00;;
69083;SDS011;56185;48.526;9.044;2023-09-08T07:01:55;7.87;;;7.00;;
69083;SDS011;56185;48.526;9.044;2023-09-08T07:04:20;8.40;;;7.00;;
69083;SDS011;56185;48.526;9.044;2023-09-08T07:06:46;11.77;;;8.15;;
69083;SDS011;56185;48.526;9.044;2023-09-08T07:09:11;10.70;;;7.77;;
69083;SDS011;56185;48.526;9.044;2023-09-08T07:11:37;11.48;;;7.95;;
69083;SDS011;56185;48.526;9.044;2023-09-08T07:14:02;10.35;;;7.60;;
69083;SDS011;56185;48.526;9.044;2023-09-08T07:16:27;10.67;;;7.47;;
69083;SDS011;56185;48.526;9.044;2023-09-08T07:18:53;9.18;;;7.32;;
69083;SDS011;56185;48.526;9.044;2023-09-08T07:21:18;11.87;;;7.93;;
69083;SDS011;56185;48.526;9.044;2023-09-08T07:23:43;11.33;;;7.50;;
69083;SDS011;56185;48.526;9.044;2023-09-08T07:26:09;8.75;;;7.20;;
69083;SDS011;56185;48.526;9.044;2023-09-08T07:28:34;10.07;;;7.10;;
69083;SDS011;56185;48.526;9.044;2023-09-08T07:31:03;10.80;;;7.87;;
69083;SDS011;56185;48.526;9.044;2023-09-08T07:33:29;10.13;;;7.78;;
69083;SDS011;56185;48.526;9.044;2023-09-08T07:35:54;9.23;;;7.50;;
69083;SDS011;56185;48.526;9.044;2023-09-08T07:38:19;13.90;;;7.73;;
69083;SDS011;56185;48.526;9.044;2023-09-08T07:40:44;10.43;;;7.60;;
69083;SDS011;56185;48.526;9.044;2023-09-08T07:43:10;10.07;;;7.40;;
69083;SDS011;56185;48.526;9.044;2023-09-08T07:45:35;9.75;;;7.07;;
69083;SDS011;56185;48.526;9.044;2023-09-08T07:48:00;9.37;;;7.30;;
69083;SDS011;56185;48.526;9.044;2023-09-08T07:50:27;10.43;;;7.60;;
69083;SDS011;56185;48.526;9.044;2023-09-08T07:52:54;9.75;;;7.53;;
69083;SDS011;56185;48.526;9.044;2023-09-08T07:55:20;10.75;;;7.15;;
69083;SDS011;56185;48.526;9.044;2023-09-08T07:57:46;9.27;;;7.25;;
69083;SDS011;56185;48.526;9.044;2023-09-08T08:00:12;8.27;;;7.13;;
69083;SDS011;56185;48.526;9.044;2023-09-08T08:02:47;8.05;;;6.63;;
69083;SDS011;56185;48.526;9.044;2023-09-08T08:05:14;10.52;;;6.90;;
69083;SDS011;56185;48.526;9.044;2023-09-08T08:07:40;8.93;;;6.80;;
69083;SDS011;56185;48.526;9.044;2023-09-08T08:10:06;9.68;;;6.28;;
69083;SDS011;56185;48.526;9.044;2023-09-08T08:12:32;8.20;;;6.60;;
69083;SDS011;56185;48.526;9.044;2023-09-08T08:14:57;8.82;;;6.78;;
69083;SDS011;56185;48.526;9.044;2023-09-08T08:17:22;9.30;;;6.35;;
69083;SDS011;56185;48.526;9.044;2023-09-08T08:19:48;8.93;;;6.37;;
69083;SDS011;56185;48.526;9.044;2023-09-08T08:22:13;7.90;;;6.00;;
69083;SDS011;56185;48.526;9.044;2023-09-08T08:24:38;7.60;;;6.03;;
69083;SDS011;56185;48.526;9.044;2023-09-08T08:27:03;7.93;;;6.07;;
69083;SDS011;56185;48.526;9.044;2023-09-08T08:29:29;7.28;;;5.82;;
69083;SDS011;56185;48.526;9.044;2023-09-08T08:31:54;7.50;;;5.72;;
69083;SDS011;56185;48.526;9.044;2023-09-08T08:34:20;6.68;;;5.70;;
69083;SDS011;56185;48.526;9.044;2023-09-08T08:36:45;7.82;;;5.90;;
69083;SDS011;56185;48.526;9.044;2023-09-08T08:39:10;6.47;;;5.50;;
69083;SDS011;56185;48.526;9.044;2023-09-08T08:41:35;9.70;;;5.60;;
69083;SDS011;56185;48.526;9.044;2023-09-08T08:44:01;8.20;;;6.23;;
69083;SDS011;56185;48.526;9.044;2023-09-08T08:46:26;7.43;;;5.55;;
69083;SDS011;56185;48.526;9.044;2023-09-08T08:48:52;10.45;;;5.70;;
69083;SDS011;56185;48.526;9.044;2023-09-08T08:51:18;8.30;;;6.53;;
69083;SDS011;56185;48.526;9.044;2023-09-08T08:53:44;8.20;;;6.00;;
69083;SDS011;56185;48.526;9.044;2023-09-08T08:56:09;7.28;;;5.63;;
69083;SDS011;56185;48.526;9.044;2023-09-08T08:58:36;9.27;;;5.20;;
69083;SDS011;56185;48.526;9.044;2023-09-08T09:01:03;8.82;;;5.45;;
69083;SDS011;56185;48.526;9.044;2023-09-08T09:03:29;7.50;;;5.20;;
69083;SDS011;56185;48.526;9.044;2023-09-08T09:05:56;8.00;;;5.10;;
69083;SDS011;56185;48.526;9.044;2023-09-08T09:08:21;6.03;;;4.85;;
69083;SDS011;56185;48.526;9.044;2023-09-08T09:10:48;11.15;;;4.82;;
69083;SDS011;56185;48.526;9.044;2023-09-08T09:13:13;8.25;;;4.90;;
69083;SDS011;56185;48.526;9.044;2023-09-08T09:15:38;9.53;;;5.00;;
69083;SDS011;56185;48.526;9.044;2023-09-08T09:18:04;7.17;;;4.90;;
69083;SDS011;56185;48.526;9.044;2023-09-08T09:20:31;8.98;;;5.20;;
69083;SDS011;56185;48.526;9.044;2023-09-08T09:22:56;5.43;;;4.60;;
69083;SDS011;56185;48.526;9.044;2023-09-08T09:25:25;5.95;;;4.60;;
69083;SDS011;56185;48.526;9.044;2023-09-08T09:27:52;6.45;;;4.68;;
69083;SDS011;56185;48.526;9.044;2023-09-08T09:30:19;6.78;;;4.57;;
69083;SDS011;56185;48.526;9.044;2023-09-08T09:32:44;7.17;;;4.90;;
69083;SDS011;56185;48.526;9.044;2023-09-08T09:35:09;6.60;;;4.50;;
69083;SDS011;56185;48.526;9.044;2023-09-08T09:37:34;7.87;;;5.10;;
69083;SDS011;56185;48.526;9.044;2023-09-08T09:40:00;8.20;;;5.33;;
69083;SDS011;56185;48.526;9.044;2023-09-08T09:42:25;9.85;;;5.18;;
69083;SDS011;56185;48.526;9.044;2023-09-08T09:44:52;5.68;;;4.88;;
69083;SDS011;56185;48.526;9.044;2023-09-08T09:47:18;7.05;;;4.97;;
69083;SDS011;56185;48.526;9.044;2023-09-08T09:49:44;6.05;;;5.15;;
69083;SDS011;56185;48.526;9.044;2023-09-08T09:52:19;7.07;;;4.93;;
69083;SDS011;56185;48.526;9.044;2023-09-08T09:54:46;6.95;;;4.50;;
69083;SDS011;56185;48.526;9.044;2023-09-08T09:57:12;6.25;;;4.80;;
69083;SDS011;56185;48.526;9.044;2023-09-08T09:59:41;8.50;;;4.78;;
69083;SDS011;56185;48.526;9.044;2023-09-08T10:02:08;8.50;;;5.07;;
69083;SDS011;56185;48.526;9.044;2023-09-08T10:04:40;6.15;;;4.95;;
69083;SDS011;56185;48.526;9.044;2023-09-08T10:07:06;8.63;;;4.85;;
69083;SDS011;56185;48.526;9.044;2023-09-08T10:09:32;7.32;;;5.13;;
69083;SDS011;56185;48.526;9.044;2023-09-08T10:11:57;7.05;;;4.90;;
69083;SDS011;56185;48.526;9.044;2023-09-08T10:14:27;6.03;;;4.95;;
69083;SDS011;56185;48.526;9.044;2023-09-08T10:16:54;5.55;;;4.70;;
69083;SDS011;56185;48.526;9.044;2023-09-08T10:19:24;8.48;;;4.85;;
69083;SDS011;56185;48.526;9.044;2023-09-08T10:21:49;6.60;;;4.82;;
69083;SDS011;56185;48.526;9.044;2023-09-08T10:24:18;9.95;;;4.72;;
69083;SDS011;56185;48.526;9.044;2023-09-08T10:26:49;6.10;;;4.57;;
69083;SDS011;56185;48.526;9.044;2023-09-08T10:29:20;6.28;;;4.50;;
69083;SDS011;56185;48.526;9.044;2023-09-08T10:31:45;7.95;;;4.68;;
69083;SDS011;56185;48.526;9.044;2023-09-08T10:34:11;7.45;;;4.90;;
69083;SDS011;56185;48.526;9.044;2023-09-08T10:36:37;8.90;;;4.63;;
69083;SDS011;56185;48.526;9.044;2023-09-08T10:42:19;5.82;;;4.28;;
69083;SDS011;56185;48.526;9.044;2023-09-08T10:44:42;5.68;;;4.70;;
69083;SDS011;56185;48.526;9.044;2023-09-08T10:47:30;5.63;;;4.15;;
69083;SDS011;56185;48.526;9.044;2023-09-08T10:50:06;5.35;;;4.50;;
69083;SDS011;56185;48.526;9.044;2023-09-08T10:52:32;4.68;;;4.00;;
69083;SDS011;56185;48.526;9.044;2023-09-08T10:54:57;5.30;;;4.27;;
69083;SDS011;56185;48.526;9.044;2023-09-08T10:57:23;8.25;;;4.40;;
69083;SDS011;56185;48.526;9.044;2023-09-08T10:59:53;5.82;;;4.22;;
69083;SDS011;56185;48.526;9.044;2023-09-08T11:02:38;7.40;;;4.50;;
69083;SDS011;56185;48.526;9.044;2023-09-08T11:05:06;5.38;;;4.70;;
69083;SDS011;56185;48.526;9.044;2023-09-08T11:07:33;6.82;;;4.40;;
69083;SDS011;56185;48.526;9.044;2023-09-08T11:09:59;5.40;;;4.40;;
69083;SDS011;56185;48.526;9.044;2023-09-08T11:12:27;7.63;;;4.90;;
69083;SDS011;56185;48.526;9.044;2023-09-08T11:14:52;6.50;;;4.30;;
69083;SDS011;56185;48.526;9.044;2023-09-08T11:17:18;5.30;;;4.30;;
69083;SDS011;56185;48.526;9.044;2023-09-08T11:19:45;4.83;;;4.13;;
69083;SDS011;56185;48.526;9.044;2023-09-08T11:22:11;7.20;;;4.13;;
69083;SDS011;56185;48.526;9.044;2023-09-08T11:24:36;8.67;;;4.20;;
69083;SDS011;56185;48.526;9.044;2023-09-08T11:27:01;6.85;;;4.22;;
69083;SDS011;56185;48.526;9.044;2023-09-08T11:29:27;5.20;;;4.10;;
69083;SDS011;56185;48.526;9.044;2023-09-08T11:31:53;5.10;;;4.07;;
69083;SDS011;56185;48.526;9.044;2023-09-08T11:34:20;7.85;;;4.15;;
69083;SDS011;56185;48.526;9.044;2023-09-08T11:36:45;5.30;;;4.05;;
69083;SDS011;56185;48.526;9.044;2023-09-08T11:39:11;4.87;;;3.83;;
69083;SDS011;56185;48.526;9.044;2023-09-08T11:41:36;4.90;;;3.83;;
69083;SDS011;56185;48.526;9.044;2023-09-08T11:44:01;6.28;;;3.90;;
69083;SDS011;56185;48.526;9.044;2023-09-08T11:46:27;4.88;;;3.90;;
69083;SDS011;56185;48.526;9.044;2023-09-08T11:48:52;5.23;;;3.73;;
69083;SDS011;56185;48.526;9.044;2023-09-08T11:51:22;6.07;;;3.90;;
69083;SDS011;56185;48.526;9.044;2023-09-08T11:53:47;7.18;;;3.90;;
69083;SDS011;56185;48.526;9.044;2023-09-08T11:56:13;5.35;;;3.80;;
69083;SDS011;56185;48.526;9.044;2023-09-08T11:58:38;6.32;;;3.60;;
69083;SDS011;56185;48.526;9.044;2023-09-08T12:01:04;5.70;;;3.95;;
69083;SDS011;56185;48.526;9.044;2023-09-08T12:03:29;5.50;;;4.13;;
69083;SDS011;56185;48.526;9.044;2023-09-08T12:05:54;4.93;;;3.67;;
69083;SDS011;56185;48.526;9.044;2023-09-08T12:08:20;4.75;;;4.03;;
69083;SDS011;56185;48.526;9.044;2023-09-08T12:10:45;5.00;;;3.75;;
69083;SDS011;56185;48.526;9.044;2023-09-08T12:13:10;6.23;;;3.83;;
69083;SDS011;56185;48.526;9.044;2023-09-08T12:15:37;8.15;;;3.63;;
69083;SDS011;56185;48.526;9.044;2023-09-08T12:18:04;5.93;;;3.60;;
69083;SDS011;56185;48.526;9.044;2023-09-08T12:20:31;5.68;;;4.10;;
69083;SDS011;56185;48.526;9.044;2023-09-08T12:23:00;5.18;;;3.63;;
69083;SDS011;56185;48.526;9.044;2023-09-08T12:25:28;4.65;;;3.78;;
69083;SDS011;56185;48.526;9.044;2023-09-08T12:27:53;6.03;;;3.70;;
69083;SDS011;56185;48.526;9.044;2023-09-08T12:30:20;5.93;;;3.80;;
69083;SDS011;56185;48.526;9.044;2023-09-08T12:32:47;5.10;;;3.80;;
69083;SDS011;56185;48.526;9.044;2023-09-08T12:35:13;5.13;;;3.70;;
69083;SDS011;56185;48.526;9.044;2023-09-08T12:37:45;4.88;;;3.45;;
69083;SDS011;56185;48.526;9.044;2023-09-08T12:40:10;4.70;;;3.67;;
69083;SDS011;56185;48.526;9.044;2023-09-08T12:42:36;4.97;;;3.70;;
69083;SDS011;56185;48.526;9.044;2023-09-08T12:45:01;4.90;;;3.70;;
69083;SDS011;56185;48.526;9.044;2023-09-08T12:47:26;5.53;;;4.15;;
69083;SDS011;56185;48.526;9.044;2023-09-08T12:49:52;5.87;;;3.47;;
69083;SDS011;56185;48.526;9.044;2023-09-08T12:52:17;4.27;;;3.27;;
69083;SDS011;56185;48.526;9.044;2023-09-08T12:54:42;4.63;;;3.60;;
69083;SDS011;56185;48.526;9.044;2023-09-08T12:57:07;5.10;;;3.53;;
69083;SDS011;56185;48.526;9.044;2023-09-08T12:59:32;4.20;;;3.43;;
69083;SDS011;56185;48.526;9.044;2023-09-08T13:01:58;5.87;;;3.63;;
69083;SDS011;56185;48.526;9.044;2023-09-08T13:04:23;5.63;;;3.70;;
69083;SDS011;56185;48.526;9.044;2023-09-08T13:06:48;6.15;;;3.85;;
69083;SDS011;56185;48.526;9.044;2023-09-08T13:09:13;4.13;;;3.40;;
69083;SDS011;56185;48.526;9.044;2023-09-08T13:11:39;6.10;;;3.93;;
69083;SDS011;56185;48.526;9.044;2023-09-08T13:14:04;5.20;;;3.70;;
69083;SDS011;56185;48.526;9.044;2023-09-08T13:16:32;5.83;;;3.57;;
69083;SDS011;56185;48.526;9.044;2023-09-08T13:19:00;3.90;;;3.50;;
69083;SDS011;56185;48.526;9.044;2023-09-08T13:21:25;6.97;;;4.03;;
69083;SDS011;56185;48.526;9.044;2023-09-08T13:23:50;7.03;;;4.00;;
69083;SDS011;56185;48.526;9.044;2023-09-08T13:26:15;3.90;;;3.50;;
69083;SDS011;56185;48.526;9.044;2023-09-08T13:28:41;4.50;;;3.50;;
69083;SDS011;56185;48.526;9.044;2023-09-08T13:31:06;6.00;;;3.60;;
69083;SDS011;56185;48.526;9.044;2023-09-08T13:33:31;4.83;;;3.70;;
69083;SDS011;56185;48.526;9.044;2023-09-08T13:35:56;8.47;;;3.90;;
69083;SDS011;56185;48.526;9.044;2023-09-08T13:38:21;5.17;;;3.60;;
69083;SDS011;56185;48.526;9.044;2023-09-08T13:40:47;4.70;;;3.43;;
69083;SDS011;56185;48.526;9.044;2023-09-08T13:43:12;5.10;;;3.40;;
69083;SDS011;56185;48.526;9.044;2023-09-08T13:45:37;3.80;;;3.30;;
69083;SDS011;56185;48.526;9.044;2023-09-08T13:48:02;7.43;;;3.50;;
69083;SDS011;56185;48.526;9.044;2023-09-08T13:50:28;5.53;;;3.33;;
69083;SDS011;56185;48.526;9.044;2023-09-08T13:52:53;4.70;;;3.57;;
69083;SDS011;56185;48.526;9.044;2023-09-08T13:55:18;4.20;;;3.43;;
69083;SDS011;56185;48.526;9.044;2023-09-08T13:57:43;4.47;;;3.40;;
69083;SDS011;56185;48.526;9.044;2023-09-08T14:00:09;5.17;;;3.60;;
69083;SDS011;56185;48.526;9.044;2023-09-08T14:02:34;4.97;;;3.40;;
69083;SDS011;56185;48.526;9.044;2023-09-08T14:05:00;4.27;;;3.40;;
69083;SDS011;56185;48.526;9.044;2023-09-08T14:07:25;6.07;;;3.37;;
69083;SDS011;56185;48.526;9.044;2023-09-08T14:09:50;5.20;;;3.40;;
69083;SDS011;56185;48.526;9.044;2023-09-08T14:12:15;4.27;;;3.30;;
69083;SDS011;56185;48.526;9.044;2023-09-08T14:14:41;4.40;;;3.37;;
69083;SDS011;56185;48.526;9.044;2023-09-08T14:17:06;4.13;;;3.25;;
69083;SDS011;56185;48.526;9.044;2023-09-08T14:19:31;5.53;;;3.27;;
69083;SDS011;56185;48.526;9.044;2023-09-08T14:21:56;6.10;;;3.53;;
69083;SDS011;56185;48.526;9.044;2023-09-08T14:24:22;5.43;;;4.20;;
69083;SDS011;56185;48.526;9.044;2023-09-08T14:26:48;4.47;;;3.50;;
69083;SDS011;56185;48.526;9.044;2023-09-08T14:29:13;6.22;;;3.25;;
69083;SDS011;56185;48.526;9.044;2023-09-08T14:31:39;6.67;;;3.47;;
69083;SDS011;56185;48.526;9.044;2023-09-08T14:34:04;5.23;;;3.40;;
69083;SDS011;56185;48.526;9.044;2023-09-08T14:36:29;4.73;;;3.60;;
69083;SDS011;56185;48.526;9.044;2023-09-08T14:38:54;4.17;;;3.40;;
69083;SDS011;56185;48.526;9.044;2023-09-08T14:41:20;4.37;;;3.40;;
69083;SDS011;56185;48.526;9.044;2023-09-08T14:43:45;4.80;;;3.40;;